Time;durP1;ratioP1;P1;durP2;ratioP2;P2;SDS_P1;SDS_P2;PMS_P1;PMS_P2;Temp;Humidity;BMP_temperature;BMP_pressure;BME280_temperature;BME280_humidity;BME280_pressure;Samples;Min_cycle;Max_cycle;Signal;HPM_P1;HPM_P2
2021/12/03 09:11:18;;;;;;;12.43;3.30;;;;;;;-0.13;100.00;98970.16;5172842;27;20364;-81
2021/12/03 09:13:46;;;;;;;10.07;3.93;;;;;;;-0.09;98.69;98966.28;5172769;27;20042;-82
2021/12/03 09:16:17;;;;;;;4.93;2.80;;;;;;;0.01;98.30;98953.03;5171773;27;20692;-82
2021/12/03 09:18:45;;;;;;;4.53;3.00;;;;;;;0.04;98.58;98950.09;5171602;27;20487;-82
2021/12/03 09:21:15;;;;;;;4.17;2.83;;;;;;;0.16;98.40;98950.94;5171522;27;20057;-82
2021/12/03 09:23:56;;;;;;;6.78;2.70;;;;;;;0.33;97.81;98965.59;5170671;27;20186;-82
2021/12/03 09:26:26;;;;;;;5.20;2.67;;;;;;;0.26;98.27;98946.56;5164439;27;20401;-82
2021/12/03 09:29:00;;;;;;;10.00;3.17;;;;;;;0.36;95.08;98957.34;5171831;27;20425;-82
2021/12/03 09:31:27;;;;;;;7.40;2.95;;;;;;;0.50;94.55;98962.41;5171785;27;20050;-82
2021/12/03 09:33:54;;;;;;;5.63;2.87;;;;;;;0.57;91.49;98948.53;5171778;27;20412;-82
2021/12/03 09:36:21;;;;;;;2.92;2.25;;;;;;;0.66;89.86;98940.63;5171526;27;20049;-82
2021/12/03 09:38:48;;;;;;;4.78;2.40;;;;;;;0.67;90.60;98939.63;5172039;27;20121;-82
2021/12/03 09:41:17;;;;;;;5.07;2.50;;;;;;;0.86;93.07;98963.03;5168650;27;20057;-82
2021/12/03 09:43:47;;;;;;;3.50;1.98;;;;;;;0.78;88.56;98951.25;5166387;27;20053;-83
2021/12/03 09:46:19;;;;;;;8.18;2.08;;;;;;;0.84;90.96;98948.94;5171551;27;20054;-82
2021/12/03 09:51:34;;;;;;;2.28;1.77;;;;;;;0.88;89.47;98930.78;5167467;27;20078;-82
2021/12/03 09:56:56;;;;;;;3.10;2.08;;;;;;;0.91;87.68;98943.06;5144058;27;20041;-82
2021/12/03 10:02:18;;;;;;;3.30;1.83;;;;;;;1.19;91.56;98934.38;5171784;27;20049;-82
2021/12/03 10:11:11;;;;;;;2.33;1.58;;;;;;;1.14;85.47;98930.41;5150154;27;20562;-82
2021/12/03 10:13:37;;;;;;;4.50;2.25;;;;;;;1.25;87.52;98930.34;5169771;27;20074;-82
2021/12/03 10:16:16;;;;;;;5.30;2.30;;;;;;;1.36;88.07;98924.91;5170369;27;20043;-82
2021/12/03 10:18:47;;;;;;;2.67;2.00;;;;;;;1.29;84.06;98921.03;5170897;27;20049;-82
2021/12/03 10:21:33;;;;;;;3.03;2.10;;;;;;;1.24;86.23;98916.09;5163724;27;20600;-82
2021/12/03 10:24:37;;;;;;;4.93;2.35;;;;;;;1.26;88.36;98923.16;5156813;27;20050;-82
2021/12/03 10:30:15;;;;;;;3.58;2.15;;;;;;;1.25;83.65;98908.91;5154919;27;20094;-82
2021/12/03 10:33:09;;;;;;;2.42;2.00;;;;;;;1.36;85.59;98918.69;5149413;27;20129;-82
2021/12/03 10:41:26;;;;;;;5.30;1.88;;;;;;;1.38;84.95;98898.81;5134586;27;20398;-81
2021/12/03 10:46:59;;;;;;;2.30;1.60;;;;;;;1.61;83.08;98912.03;5155040;27;20386;-81
2021/12/03 10:49:41;;;;;;;5.78;1.85;;;;;;;1.66;83.45;98917.88;5147423;27;20043;-81
2021/12/03 10:52:25;;;;;;;6.65;2.08;;;;;;;1.52;80.60;98891.41;5156018;27;20046;-81
2021/12/03 10:55:26;;;;;;;2.55;1.45;;;;;;;1.52;81.96;98896.78;5156273;27;20508;-81
2021/12/03 11:12:24;;;;;;;3.47;1.98;;;;;;;1.98;85.91;98865.91;5155480;27;20050;-81
2021/12/03 13:01:47;;;;;;;3.47;2.35;;;;;;;2.64;82.66;98760.59;5153939;27;20062;-84
2021/12/03 13:27:08;;;;;;;1.73;1.48;;;;;;;2.45;81.69;98739.16;5068203;28;20067;-82
2021/12/03 14:37:48;;;;;;;6.15;1.35;;;;;;;1.86;82.00;98698.13;5100388;28;20050;-82
2021/12/03 14:40:36;;;;;;;3.13;1.70;;;;;;;1.73;83.44;98696.59;5136113;27;20092;-82
2021/12/03 14:52:04;;;;;;;4.43;2.08;;;;;;;1.85;85.59;98685.72;5139546;27;20047;-82
2021/12/03 14:54:50;;;;;;;6.60;1.88;;;;;;;1.77;86.38;98703.34;5156565;27;20047;-82
2021/12/03 14:57:30;;;;;;;1.60;1.40;;;;;;;1.67;86.50;98674.84;5155892;27;20100;-82
2021/12/03 15:00:24;;;;;;;5.85;1.70;;;;;;;1.60;86.56;98677.25;5154760;27;20039;-81
2021/12/03 15:03:04;;;;;;;4.57;1.42;;;;;;;1.71;87.11;98686.97;5156154;27;20058;-82
2021/12/03 15:05:46;;;;;;;1.52;1.17;;;;;;;1.66;87.55;98684.72;5156948;27;20050;-82
2021/12/03 15:08:19;;;;;;;3.97;1.67;;;;;;;1.63;87.44;98689.53;5154873;27;20070;-82
2021/12/03 15:11:21;;;;;;;2.75;1.80;;;;;;;1.50;87.72;98701.34;5155046;27;20035;-84
2021/12/03 15:25:42;;;;;;;2.08;1.30;;;;;;;1.21;89.42;98688.72;5143289;27;20110;-83
2021/12/03 15:28:36;;;;;;;2.25;1.48;;;;;;;1.17;89.05;98692.66;5170698;27;20054;-84
2021/12/03 15:31:15;;;;;;;3.38;1.65;;;;;;;0.98;89.79;98685.44;5165818;27;20053;-84
2021/12/03 15:33:51;;;;;;;2.70;1.38;;;;;;;1.03;89.88;98682.34;5148422;27;20050;-83
2021/12/03 15:36:22;;;;;;;3.80;1.23;;;;;;;0.93;90.57;98678.78;5155431;27;20129;-83
2021/12/03 15:58:30;;;;;;;8.68;2.20;;;;;;;0.91;90.41;98668.22;5111339;28;20132;-83
2021/12/03 16:03:55;;;;;;;3.60;1.65;;;;;;;0.68;92.06;98664.91;5154393;27;20058;-83
2021/12/03 16:06:32;;;;;;;6.63;2.53;;;;;;;0.72;92.02;98660.13;5159067;27;20097;-83
2021/12/03 16:09:07;;;;;;;7.00;2.90;;;;;;;0.55;92.40;98651.72;5155036;27;20054;-83
2021/12/03 16:11:42;;;;;;;8.85;4.78;;;;;;;0.42;93.53;98629.72;5154733;27;20043;-81
2021/12/03 16:20:01;;;;;;;5.55;3.47;;;;;;;0.37;93.57;98664.03;5142951;27;20048;-86
2021/12/03 16:22:44;;;;;;;6.05;3.72;;;;;;;0.29;93.87;98656.69;5151927;27;20049;-86
2021/12/03 16:44:55;;;;;;;4.60;3.00;;;;;;;-0.17;96.92;98616.00;5155897;27;20092;-85
2021/12/03 16:47:57;;;;;;;4.80;2.67;;;;;;;-0.18;97.13;98619.69;5154017;27;20052;-84
2021/12/03 16:53:19;;;;;;;6.40;3.42;;;;;;;-0.41;98.00;98616.25;5153811;27;20049;-83
2021/12/03 16:55:55;;;;;;;7.20;3.60;;;;;;;-0.24;99.09;98623.69;5153929;27;20489;-83
2021/12/03 16:58:22;;;;;;;5.65;3.45;;;;;;;-0.33;99.90;98612.94;5153554;27;20554;-84
2021/12/03 17:00:56;;;;;;;8.98;3.90;;;;;;;-0.28;100.00;98638.28;5152807;27;20403;-84
2021/12/03 17:03:26;;;;;;;7.18;3.17;;;;;;;-0.32;100.00;98618.16;5152909;27;20129;-84
2021/12/03 17:14:24;;;;;;;5.53;2.88;;;;;;;-0.36;100.00;98620.25;5132438;27;20413;-84
2021/12/03 17:20:29;;;;;;;7.55;3.15;;;;;;;-0.40;100.00;98593.91;5152252;27;20038;-84
2021/12/03 17:45:36;;;;;;;7.60;3.05;;;;;;;-0.22;100.00;98575.50;5140086;27;20081;-84
2021/12/03 17:48:12;;;;;;;6.82;2.60;;;;;;;-0.20;100.00;98573.53;5157547;27;20070;-84
2021/12/03 17:51:01;;;;;;;9.38;2.65;;;;;;;-0.13;100.00;98571.19;5156078;27;20039;-84
2021/12/03 17:53:50;;;;;;;3.53;2.58;;;;;;;-0.14;100.00;98566.81;5153937;27;20043;-84
2021/12/03 17:56:18;;;;;;;6.53;3.80;;;;;;;-0.08;100.00;98568.97;5138036;27;20047;-84
2021/12/03 17:58:47;;;;;;;6.35;3.72;;;;;;;-0.07;100.00;98546.59;5157931;27;20046;-84
2021/12/03 18:01:18;;;;;;;5.28;3.10;;;;;;;0.11;100.00;98546.84;5157226;27;20137;-84
2021/12/03 18:04:00;;;;;;;11.93;3.45;;;;;;;0.22;100.00;98530.69;5157109;27;20055;-84
2021/12/03 18:06:51;;;;;;;5.68;3.53;;;;;;;0.25;100.00;98526.91;5149580;27;20481;-84
2021/12/03 18:09:40;;;;;;;7.72;3.50;;;;;;;0.35;100.00;98511.75;5150674;27;20474;-84
2021/12/03 18:45:30;;;;;;;2.28;1.60;;;;;;;0.67;91.57;98490.13;5156174;27;20071;-80
2021/12/03 18:53:42;;;;;;;2.72;2.20;;;;;;;0.83;90.87;98494.13;5135085;27;20469;-80
2021/12/03 18:56:17;;;;;;;2.97;1.95;;;;;;;0.70;90.70;98463.09;5152197;27;20054;-80
2021/12/03 18:58:44;;;;;;;4.07;2.60;;;;;;;0.86;90.50;98478.63;5154380;27;20558;-80
2021/12/03 19:01:12;;;;;;;2.80;2.00;;;;;;;0.87;89.32;98461.59;5155631;27;20046;-80
2021/12/03 19:03:53;;;;;;;5.70;2.22;;;;;;;0.96;88.86;98469.75;5153434;27;20054;-80
2021/12/03 19:06:23;;;;;;;7.03;2.85;;;;;;;0.87;88.93;98463.41;5152083;27;20046;-80
2021/12/03 19:08:51;;;;;;;2.90;2.10;;;;;;;0.94;87.35;98464.53;5154906;27;20039;-80
2021/12/03 19:11:23;;;;;;;3.80;2.13;;;;;;;0.86;86.33;98451.03;5153847;27;20093;-80
2021/12/03 19:13:50;;;;;;;3.33;1.95;;;;;;;0.96;87.38;98459.88;5155414;27;20126;-80
2021/12/03 19:16:22;;;;;;;2.90;1.80;;;;;;;1.09;86.80;98445.38;5153461;27;20042;-80
2021/12/03 19:18:51;;;;;;;6.60;2.40;;;;;;;1.06;86.60;98447.31;5152140;27;20042;-81
2021/12/03 19:21:24;;;;;;;6.35;2.33;;;;;;;0.94;85.22;98426.22;5144535;27;20485;-80
2021/12/03 19:23:52;;;;;;;5.50;2.85;;;;;;;1.14;84.26;98441.25;5152418;27;20505;-80
2021/12/03 19:26:21;;;;;;;3.17;2.53;;;;;;;1.19;83.99;98433.66;5154884;27;20453;-80
2021/12/03 19:28:52;;;;;;;2.97;2.23;;;;;;;1.16;83.02;98412.53;5142639;27;20042;-80
2021/12/03 19:31:21;;;;;;;6.22;2.55;;;;;;;1.22;84.10;98409.28;5155113;27;20316;-80
2021/12/03 19:33:48;;;;;;;3.88;2.20;;;;;;;1.20;83.36;98410.41;5154012;27;20038;-80
2021/12/03 19:37:07;;;;;;;4.07;2.05;;;;;;;1.12;84.34;98402.25;5152114;27;20058;-81
2021/12/03 19:39:37;;;;;;;4.68;2.65;;;;;;;1.18;83.18;98399.84;5106423;27;20047;-79
2021/12/03 19:42:09;;;;;;;4.30;2.33;;;;;;;1.19;84.84;98401.53;5154432;27;20089;-79
2021/12/03 19:44:40;;;;;;;4.10;2.40;;;;;;;1.24;83.93;98390.38;5154369;27;20047;-79
2021/12/03 19:47:09;;;;;;;5.00;2.67;;;;;;;1.18;83.16;98393.66;5154869;27;20078;-78
2021/12/03 19:49:44;;;;;;;7.10;2.67;;;;;;;1.14;83.95;98365.47;5154651;27;20055;-79
2021/12/03 19:52:20;;;;;;;2.70;2.15;;;;;;;1.10;84.77;98366.72;5152434;27;20068;-78
2021/12/03 19:54:49;;;;;;;4.50;2.30;;;;;;;1.21;84.17;98383.47;5138733;27;20130;-79
2021/12/03 19:57:17;;;;;;;8.38;3.55;;;;;;;1.19;81.49;98352.47;5152948;27;20051;-79
2021/12/03 19:59:44;;;;;;;3.10;2.60;;;;;;;1.29;82.53;98366.69;5155121;27;20057;-79
2021/12/03 20:02:15;;;;;;;4.28;2.13;;;;;;;1.27;82.73;98354.44;5153932;27;20043;-79
2021/12/03 20:04:42;;;;;;;3.03;2.00;;;;;;;1.32;82.49;98353.00;5152811;27;20046;-79
2021/12/03 20:07:09;;;;;;;4.65;2.50;;;;;;;1.27;81.24;98346.41;5153551;27;20485;-79
2021/12/03 20:09:42;;;;;;;3.03;2.25;;;;;;;1.18;81.92;98342.78;5153784;27;20047;-79
2021/12/03 20:12:12;;;;;;;6.20;4.20;;;;;;;1.34;82.39;98358.22;5153253;27;20119;-79
2021/12/03 20:14:47;;;;;;;6.20;3.10;;;;;;;1.32;80.76;98349.50;5153975;27;20100;-79
2021/12/03 20:17:19;;;;;;;6.07;3.53;;;;;;;1.25;81.27;98343.88;5154542;27;20118;-79
2021/12/03 20:19:50;;;;;;;2.92;2.35;;;;;;;1.29;79.52;98339.06;5153542;27;20078;-79
2021/12/03 20:22:20;;;;;;;2.95;2.30;;;;;;;1.35;80.59;98350.03;5152166;27;20130;-79
2021/12/03 20:25:04;;;;;;;4.90;2.78;;;;;;;1.44;80.40;98351.00;5154374;27;20066;-79
2021/12/03 20:27:42;;;;;;;6.55;3.22;;;;;;;1.27;80.39;98328.50;5154090;27;20058;-79
2021/12/03 20:30:20;;;;;;;6.40;3.47;;;;;;;1.35;79.72;98325.94;5153453;27;20042;-79
2021/12/03 20:33:02;;;;;;;11.93;5.28;;;;;;;1.48;81.73;98325.59;5153229;27;20071;-80
2021/12/03 20:38:25;;;;;;;15.35;5.88;;;;;;;1.47;79.99;98298.97;5134808;27;20049;-80
2021/12/03 20:40:54;;;;;;;8.05;3.75;;;;;;;1.40;79.96;98304.06;5144676;27;20043;-80
2021/12/03 20:43:33;;;;;;;10.25;4.75;;;;;;;1.47;79.63;98315.03;5153509;27;20444;-80
2021/12/03 20:46:15;;;;;;;11.07;4.35;;;;;;;1.47;78.72;98301.66;5153634;27;20130;-80
2021/12/03 20:48:51;;;;;;;16.67;5.47;;;;;;;1.42;80.73;98305.59;5145761;27;20130;-80
2021/12/03 20:51:33;;;;;;;7.85;3.28;;;;;;;1.55;78.20;98313.31;5153055;27;20047;-79
2021/12/03 21:07:54;;;;;;;4.82;2.13;;;;;;;1.49;79.94;98305.00;5133569;27;20508;-80
2021/12/03 21:08:13;;;;;;;5.65;3.00;;;;;;;1.52;79.97;98272.56;5153360;27;20058;-81
2021/12/03 21:10:51;;;;;;;4.18;2.90;;;;;;;1.53;81.01;98277.78;5153141;27;20054;-80
2021/12/03 21:13:25;;;;;;;6.47;3.95;;;;;;;1.64;81.30;98275.88;5151351;27;20049;-81
2021/12/03 21:16:11;;;;;;;5.88;3.55;;;;;;;1.62;80.33;98264.50;5145089;27;20524;-81
2021/12/03 21:18:45;;;;;;;7.72;4.03;;;;;;;1.63;80.23;98269.69;5153796;27;20078;-81
2021/12/03 21:21:14;;;;;;;6.32;3.53;;;;;;;1.56;81.54;98271.28;5152794;27;20481;-80
2021/12/03 21:23:43;;;;;;;7.88;3.63;;;;;;;1.57;82.93;98251.53;5152733;27;20050;-81
2021/12/03 21:26:14;;;;;;;12.25;2.97;;;;;;;1.48;81.59;98231.84;5153643;27;20473;-80
2021/12/03 21:28:49;;;;;;;3.03;2.72;;;;;;;1.56;82.23;98237.28;5149540;27;20465;-80
2021/12/03 21:31:19;;;;;;;7.22;5.18;;;;;;;1.54;82.36;98233.09;5151564;27;20525;-81
2021/12/03 21:39:36;;;;;;;5.70;3.60;;;;;;;1.62;81.89;98232.34;5152843;27;20134;-81
2021/12/03 21:42:04;;;;;;;10.75;5.15;;;;;;;1.58;81.71;98216.56;5152170;27;20555;-81
2021/12/03 21:44:31;;;;;;;5.40;3.60;;;;;;;1.69;80.55;98220.88;5152296;27;20043;-81
2021/12/03 21:47:03;;;;;;;13.57;5.97;;;;;;;1.64;80.86;98223.16;5152634;27;20074;-81
2021/12/03 21:49:32;;;;;;;7.75;4.05;;;;;;;1.72;79.44;98228.59;5152820;27;20047;-80
2021/12/03 21:51:59;;;;;;;9.05;4.60;;;;;;;1.57;80.00;98197.97;5151356;27;20050;-81
2021/12/03 21:54:26;;;;;;;7.30;3.80;;;;;;;1.61;80.66;98204.69;5153142;27;20054;-81
2021/12/03 21:57:00;;;;;;;8.40;4.15;;;;;;;1.70;80.82;98209.16;5152779;27;20053;-81
2021/12/03 21:59:27;;;;;;;16.48;5.88;;;;;;;1.68;79.80;98203.09;5151376;27;20057;-81
2021/12/03 22:01:55;;;;;;;9.00;4.32;;;;;;;1.69;79.57;98212.81;5151959;27;20070;-81
2021/12/03 22:04:28;;;;;;;5.15;2.75;;;;;;;1.63;81.69;98200.03;5151579;27;20047;-81
2021/12/03 22:07:05;;;;;;;5.43;3.03;;;;;;;1.61;84.40;98193.13;5151606;27;20053;-80
2021/12/03 22:09:32;;;;;;;5.80;2.80;;;;;;;1.62;85.81;98200.19;5152763;27;20098;-81
2021/12/03 22:11:59;;;;;;;15.00;5.07;;;;;;;1.54;87.37;98190.22;5152495;27;20410;-81
2021/12/03 22:14:26;;;;;;;18.63;6.90;;;;;;;1.50;88.78;98186.16;5152556;27;20413;-81
2021/12/03 22:16:53;;;;;;;9.13;4.10;;;;;;;1.36;89.93;98168.78;5153227;27;20047;-81
2021/12/03 22:19:20;;;;;;;4.97;2.90;;;;;;;1.33;90.73;98166.41;5155137;27;20050;-80
2021/12/03 22:21:47;;;;;;;27.10;9.02;;;;;;;1.34;92.23;98166.25;5155978;27;20050;-80
2021/12/03 22:24:18;;;;;;;54.65;17.58;;;;;;;1.48;91.00;98164.06;5155663;27;20051;-81
2021/12/03 22:26:45;;;;;;;32.42;11.75;;;;;;;1.48;92.28;98164.06;5156325;27;20042;-81
2021/12/03 22:29:13;;;;;;;58.95;24.05;;;;;;;1.42;89.99;98144.91;5156380;27;20416;-81
2021/12/03 22:31:42;;;;;;;9.90;4.90;;;;;;;1.60;89.37;98149.44;5155569;27;20043;-81
2021/12/03 22:34:15;;;;;;;13.60;4.90;;;;;;;1.57;88.65;98125.63;5156646;27;20039;-81
2021/12/03 22:36:45;;;;;;;8.32;3.15;;;;;;;1.58;91.46;98146.06;5149092;27;20053;-81
2021/12/03 22:39:12;;;;;;;9.63;4.65;;;;;;;1.35;92.52;98127.75;5138042;27;20051;-81
2021/12/03 22:41:47;;;;;;;6.65;3.17;;;;;;;1.53;92.03;98138.47;5142681;27;20093;-81
2021/12/03 22:44:15;;;;;;;8.85;3.30;;;;;;;1.56;89.87;98122.09;5156176;27;20082;-81
2021/12/03 22:46:46;;;;;;;7.50;2.90;;;;;;;1.52;89.21;98114.53;5153338;27;20057;-81
2021/12/03 22:49:33;;;;;;;3.13;2.30;;;;;;;1.57;88.47;98120.28;5155571;27;20050;-81
2021/12/03 22:54:43;;;;;;;9.80;3.35;;;;;;;1.46;88.14;98102.59;5144434;27;20384;-80
2021/12/03 22:57:16;;;;;;;21.35;9.07;;;;;;;1.43;89.38;98105.59;5153415;27;20059;-81
2021/12/03 22:59:44;;;;;;;10.88;5.18;;;;;;;1.52;89.13;98098.44;5155922;27;20049;-81
2021/12/03 23:02:12;;;;;;;6.93;3.10;;;;;;;1.51;90.48;98097.63;5153535;27;20050;-81
2021/12/03 23:04:40;;;;;;;16.88;7.78;;;;;;;1.52;90.14;98093.09;5155172;27;20154;-81
2021/12/03 23:07:07;;;;;;;40.78;15.05;;;;;;;1.55;89.40;98082.94;5156415;27;20082;-81
2021/12/03 23:09:37;;;;;;;12.70;4.18;;;;;;;1.44;89.90;98050.19;5156753;27;20053;-80
2021/12/03 23:12:05;;;;;;;6.57;2.88;;;;;;;1.60;88.60;98058.34;5155036;27;20092;-80
2021/12/03 23:14:33;;;;;;;27.63;8.57;;;;;;;1.55;88.88;98061.50;5155705;27;20057;-80
2021/12/03 23:17:01;;;;;;;8.05;3.35;;;;;;;1.48;88.09;98039.00;5154832;27;20050;-80
2021/12/03 23:19:29;;;;;;;21.50;7.05;;;;;;;1.48;88.25;98033.63;5155279;27;20115;-80
2021/12/03 23:21:57;;;;;;;24.13;7.82;;;;;;;1.60;88.65;98050.31;5155012;27;20053;-81
2021/12/03 23:24:24;;;;;;;11.85;5.25;;;;;;;1.42;88.44;98019.03;5155548;27;20043;-80
2021/12/03 23:26:51;;;;;;;6.78;2.60;;;;;;;1.55;86.70;98015.09;5155477;27;20107;-81
2021/12/03 23:29:19;;;;;;;3.38;2.30;;;;;;;1.62;85.32;98004.63;5156067;27;20047;-80
2021/12/03 23:31:48;;;;;;;4.40;2.38;;;;;;;1.79;86.36;98016.28;5154793;27;20481;-81
2021/12/03 23:34:19;;;;;;;4.05;2.25;;;;;;;1.66;86.08;97995.28;5154256;27;20043;-80
2021/12/03 23:36:50;;;;;;;6.85;2.20;;;;;;;1.71;86.66;98007.19;5155543;27;20091;-81
2021/12/03 23:39:17;;;;;;;3.35;1.80;;;;;;;1.70;85.66;97986.75;5135130;27;20451;-80
2021/12/03 23:41:44;;;;;;;4.65;2.40;;;;;;;1.69;87.70;97984.25;5150566;27;20051;-81
2021/12/03 23:44:11;;;;;;;8.20;1.85;;;;;;;1.58;88.50;97982.63;5155123;27;20099;-81
2021/12/03 23:46:38;;;;;;;5.80;2.33;;;;;;;1.64;88.95;97983.84;5155176;27;20061;-81
2021/12/03 23:49:06;;;;;;;4.63;2.13;;;;;;;1.63;88.76;97979.50;5153715;27;20043;-81
2021/12/03 23:51:34;;;;;;;2.95;2.13;;;;;;;1.72;85.55;97970.53;5148954;27;20454;-81
2021/12/03 23:54:00;;;;;;;4.85;2.00;;;;;;;1.61;87.46;97949.34;5154786;27;20126;-81
2021/12/03 23:56:27;;;;;;;2.38;1.90;;;;;;;1.55;87.56;97951.66;5154970;27;20581;-81
2021/12/03 23:58:54;;;;;;;3.42;1.95;;;;;;;1.78;86.98;97948.44;5154373;27;20052;-81
